Time;durP1;ratioP1;P1;durP2;ratioP2;P2;SDS_P1;SDS_P2;PMS_P1;PMS_P2;Temp;Humidity;BMP_temperature;BMP_pressure;BME280_temperature;BME280_humidity;BME280_pressure;Samples;Min_cycle;Max_cycle;Signal;HPM_P1;HPM_P2
2022/04/30 00:02:08;;;;;;;;;49.25;39.50;;;;;15.82;41.30;102339.22;5099316;27;45367;-89
2022/04/30 00:04:46;;;;;;;;;31.33;27.00;;;;;15.57;41.70;102298.13;5098697;27;45571;-89
2022/04/30 00:07:14;;;;;;;;;26.00;19.67;;;;;15.88;41.49;102348.00;5098290;27;45594;-89
2022/04/30 00:09:39;;;;;;;;;22.33;20.00;;;;;15.86;41.72;102350.72;5080474;27;45645;-89
2022/04/30 00:12:05;;;;;;;;;22.67;16.67;;;;;15.80;41.93;102351.88;5098807;27;45575;-89
2022/04/30 00:14:30;;;;;;;;;17.00;13.33;;;;;15.62;41.85;102328.38;5098980;27;45250;-89
2022/04/30 00:16:56;;;;;;;;;21.33;18.00;;;;;15.62;41.84;102341.81;5080421;27;45332;-89
2022/04/30 00:19:22;;;;;;;;;23.00;20.67;;;;;15.38;42.00;102308.69;5080586;27;45437;-89
2022/04/30 00:21:51;;;;;;;;;25.33;20.33;;;;;15.65;41.98;102355.13;5098920;27;45400;-89
2022/04/30 00:24:17;;;;;;;;;27.00;25.00;;;;;15.29;42.50;102300.97;5079453;27;47752;-89
2022/04/30 00:26:43;;;;;;;;;30.00;26.00;;;;;15.54;42.54;102354.66;5098604;27;45334;-89
2022/04/30 00:29:09;;;;;;;;;51.75;42.00;;;;;15.19;43.04;102301.34;5098598;27;45494;-89
2022/04/30 00:31:35;;;;;;;;;63.25;48.50;;;;;15.21;42.75;102320.09;5098806;27;45416;-89
2022/04/30 00:34:01;;;;;;;;;39.33;34.33;;;;;15.47;43.07;102367.44;5098285;27;47230;-89
2022/04/30 00:36:27;;;;;;;;;34.33;29.33;;;;;15.46;43.18;102364.84;5097888;27;45404;-89
2022/04/30 00:38:52;;;;;;;;;30.67;27.00;;;;;15.00;43.17;102294.91;5098512;27;45387;-89
2022/04/30 00:41:18;;;;;;;;;26.33;24.33;;;;;15.40;43.54;102377.56;5080321;27;45403;-89
2022/04/30 00:43:47;;;;;;;;;26.67;21.67;;;;;15.38;43.70;102373.16;5098218;27;46335;-89
2022/04/30 00:46:17;;;;;;;;;26.67;23.33;;;;;15.07;43.84;102327.78;5079821;27;45403;-89
2022/04/30 00:48:43;;;;;;;;;20.00;19.67;;;;;15.06;44.44;102334.97;5098452;27;45542;-88
2022/04/30 00:51:10;;;;;;;;;18.33;18.00;;;;;15.04;44.19;102336.84;5098218;27;45399;-89
2022/04/30 00:53:39;;;;;;;;;24.67;19.67;;;;;15.28;44.33;102375.31;5097749;27;45418;-89
2022/04/30 00:56:11;;;;;;;;;23.00;18.33;;;;;15.29;44.56;102384.25;5097915;27;45387;-89
2022/04/30 00:58:38;;;;;;;;;20.67;20.00;;;;;15.14;44.79;102358.84;5098410;27;45281;-89
2022/04/30 01:01:04;;;;;;;;;22.67;22.00;;;;;14.99;44.92;102338.81;5098220;27;45255;-89
2022/04/30 01:03:30;;;;;;;;;25.67;22.00;;;;;15.20;44.82;102375.63;5098064;27;45655;-89
2022/04/30 01:05:58;;;;;;;;;29.33;23.00;;;;;15.16;45.25;102373.09;5097193;27;45337;-88
2022/04/30 01:08:27;;;;;;;;;24.33;23.33;;;;;15.08;45.40;102359.09;5079747;27;45426;-89
2022/04/30 01:10:54;;;;;;;;;26.33;23.67;;;;;14.99;45.70;102347.75;5098173;27;45543;-89
2022/04/30 01:13:20;;;;;;;;;22.67;20.67;;;;;14.71;45.65;102312.09;5097670;27;46201;-89
2022/04/30 01:15:45;;;;;;;;;28.67;26.00;;;;;15.04;45.86;102365.50;5097808;27;45448;-89
2022/04/30 01:18:11;;;;;;;;;26.00;21.67;;;;;14.59;45.70;102294.63;5097713;27;45470;-89
2022/04/30 01:20:40;;;;;;;;;26.67;21.33;;;;;14.95;46.33;102366.69;5097970;27;45452;-89
2022/04/30 01:23:06;;;;;;;;;32.33;28.33;;;;;14.74;46.44;102333.44;5078996;27;47184;-89
2022/04/30 01:25:32;;;;;;;;;25.67;24.00;;;;;14.91;46.55;102355.22;5097683;27;45328;-89
2022/04/30 01:28:01;;;;;;;;;23.00;20.33;;;;;14.89;46.47;102349.03;5079370;27;45299;-89
2022/04/30 01:30:28;;;;;;;;;31.33;24.33;;;;;14.87;46.42;102358.94;5097734;27;45587;-89
2022/04/30 01:38:21;;;;;;;;;19.00;18.00;;;;;14.65;46.98;102331.09;5097546;27;45432;-89
2022/04/30 01:40:47;;;;;;;;;21.67;18.33;;;;;14.38;46.88;102290.00;5098015;27;45324;-89
2022/04/30 01:43:14;;;;;;;;;27.33;23.33;;;;;14.69;47.17;102349.72;5097160;27;45328;-89
2022/04/30 01:45:39;;;;;;;;;30.33;23.33;;;;;14.70;47.08;102347.91;5097495;27;45510;-89
2022/04/30 01:48:06;;;;;;;;;23.33;23.00;;;;;14.67;47.08;102345.34;5097262;27;45885;-89
2022/04/30 01:50:35;;;;;;;;;25.33;22.33;;;;;14.21;47.02;102278.03;5079378;27;45292;-89
2022/04/30 01:53:01;;;;;;;;;25.00;22.67;;;;;14.58;47.48;102335.78;5097029;27;45458;-89
2022/04/30 01:55:26;;;;;;;;;23.67;23.67;;;;;14.63;47.24;102338.31;5097222;27;45418;-89
2022/04/30 01:57:52;;;;;;;;;30.00;22.33;;;;;14.33;47.04;102295.50;5078751;27;45275;-89
2022/04/30 02:00:20;;;;;;;;;29.00;25.33;;;;;14.62;47.36;102337.44;5097667;27;45634;-89
2022/04/30 02:02:48;;;;;;;;;17.00;16.00;;;;;14.54;47.14;102318.06;5078708;27;47512;-89
2022/04/30 02:05:14;;;;;;;;;23.00;19.67;;;;;14.05;47.14;102239.28;5097043;27;45237;-89
2022/04/30 02:07:55;;;;;;;;;24.33;21.67;;;;;14.59;47.52;102331.31;5097311;27;45579;-89
2022/04/30 02:10:22;;;;;;;;;27.67;23.33;;;;;14.59;47.62;102323.28;5097572;27;45567;-89
2022/04/30 02:12:50;;;;;;;;;24.67;22.67;;;;;14.34;47.48;102292.75;5096986;27;46385;-89
2022/04/30 02:15:17;;;;;;;;;22.67;19.33;;;;;14.51;47.66;102324.34;5097094;27;45515;-89
2022/04/30 02:17:46;;;;;;;;;22.33;21.00;;;;;14.10;47.81;102256.94;5096854;27;45243;-89
2022/04/30 02:20:18;;;;;;;;;23.67;20.67;;;;;14.22;47.80;102268.19;5097282;27;45402;-90
2022/04/30 02:22:47;;;;;;;;;22.33;22.00;;;;;14.20;47.76;102265.53;5096983;27;46230;-89
2022/04/30 02:25:15;;;;;;;;;29.33;24.67;;;;;14.55;47.75;102320.69;5096649;27;45301;-89
2022/04/30 02:27:45;;;;;;;;;25.33;22.33;;;;;14.10;47.89;102245.34;5078717;27;45279;-90
2022/04/30 02:30:17;;;;;;;;;27.00;21.33;;;;;14.29;47.92;102280.44;5097067;27;45472;-89
2022/04/30 02:32:46;;;;;;;;;21.33;21.00;;;;;14.08;48.10;102239.16;5096305;27;45965;-89
2022/04/30 02:35:14;;;;;;;;;23.33;19.33;;;;;14.15;48.15;102254.97;5078432;27;46248;-89
2022/04/30 02:37:39;;;;;;;;;22.00;21.33;;;;;14.17;48.28;102264.78;5096951;27;45285;-89
2022/04/30 02:40:05;;;;;;;;;26.33;22.00;;;;;14.40;48.09;102296.16;5097181;27;45455;-89
2022/04/30 02:42:31;;;;;;;;;26.33;23.67;;;;;13.99;48.03;102226.06;5096731;27;46560;-89
2022/04/30 02:44:56;;;;;;;;;24.67;24.33;;;;;13.99;48.40;102243.03;5096601;27;45282;-89
2022/04/30 02:47:22;;;;;;;;;21.67;19.33;;;;;13.96;48.29;102232.41;5078795;27;45327;-89
2022/04/30 02:49:47;;;;;;;;;25.00;19.33;;;;;14.03;48.54;102254.53;5100553;27;45575;-89
2022/04/30 02:52:13;;;;;;;;;20.33;18.33;;;;;14.04;48.25;102257.13;5081339;27;47996;-89
2022/04/30 02:54:39;;;;;;;;;23.67;16.33;;;;;13.88;48.67;102238.03;5081569;27;45672;-89
2022/04/30 02:57:04;;;;;;;;;20.00;20.00;;;;;14.01;48.95;102253.72;5081456;27;45538;-89
2022/04/30 03:02:13;;;;;;;;;21.00;20.00;;;;;13.75;48.83;102222.41;5099580;27;45389;-89
2022/04/30 03:04:39;;;;;;;;;20.33;20.33;;;;;13.89;48.59;102255.88;5099987;27;45482;-90
2022/04/30 03:07:04;;;;;;;;;20.67;19.33;;;;;14.14;48.99;102300.59;5081704;27;45937;-90
2022/04/30 03:09:31;;;;;;;;;20.00;18.33;;;;;14.02;49.09;102272.41;5100286;27;45383;-89
2022/04/30 03:11:57;;;;;;;;;19.00;17.67;;;;;13.88;49.04;102254.13;5081237;27;48425;-89
2022/04/30 03:14:22;;;;;;;;;21.67;18.33;;;;;13.87;49.19;102271.13;5081331;27;45457;-90
2022/04/30 03:22:15;;;;;;;;;18.67;17.00;;;;;13.83;49.34;102263.22;5099605;27;45680;-89
2022/04/30 03:24:40;;;;;;;;;19.33;19.00;;;;;13.74;49.57;102251.00;5099685;27;45392;-89
2022/04/30 03:27:06;;;;;;;;;25.00;18.67;;;;;13.72;49.42;102248.38;5099771;27;45598;-89
2022/04/30 03:29:32;;;;;;;;;22.67;21.00;;;;;13.60;49.59;102226.47;5099844;27;45480;-89
2022/04/30 03:31:58;;;;;;;;;22.67;18.00;;;;;13.99;49.76;102307.34;5099198;27;46329;-89
2022/04/30 03:34:23;;;;;;;;;25.33;20.67;;;;;13.65;49.51;102264.69;5081229;27;45429;-90
2022/04/30 03:36:48;;;;;;;;;16.00;14.00;;;;;13.45;49.66;102214.44;5080935;27;45435;-90
2022/04/30 03:39:14;;;;;;;;;23.33;20.00;;;;;13.49;50.05;102230.38;5100098;27;45465;-90
2022/04/30 03:41:39;;;;;;;;;21.67;16.67;;;;;13.38;49.98;102221.81;5080858;27;47254;-89
2022/04/30 03:44:05;;;;;;;;;23.67;20.00;;;;;13.82;50.32;102291.84;5099231;27;45414;-90
2022/04/30 03:46:30;;;;;;;;;24.33;19.33;;;;;13.62;50.06;102267.47;5081228;27;45486;-89
2022/04/30 03:48:56;;;;;;;;;23.00;16.67;;;;;13.65;50.46;102268.28;5081058;27;45453;-89
2022/04/30 03:51:23;;;;;;;;;19.67;19.00;;;;;13.86;50.26;102304.22;5080953;27;47138;-89
2022/04/30 03:53:49;;;;;;;;;23.33;19.33;;;;;13.83;50.19;102304.28;5080387;27;46234;-89
2022/04/30 03:56:17;;;;;;;;;23.00;21.33;;;;;13.81;50.50;102298.09;5080675;27;45525;-89
2022/04/30 03:58:43;;;;;;;;;24.00;20.00;;;;;13.48;50.03;102250.03;5098601;27;45400;-89
2022/04/30 04:01:08;;;;;;;;;19.33;19.33;;;;;13.78;50.17;102298.22;5098381;27;45494;-89
2022/04/30 04:03:36;;;;;;;;;21.67;20.33;;;;;13.26;50.19;102215.00;5098899;27;45479;-89
2022/04/30 04:06:01;;;;;;;;;21.67;21.00;;;;;13.72;50.57;102299.31;5080516;27;45488;-89
2022/04/30 04:08:27;;;;;;;;;20.33;18.00;;;;;13.66;50.34;102277.19;5099222;27;45340;-89
2022/04/30 04:10:53;;;;;;;;;24.33;22.00;;;;;13.50;50.38;102266.94;5080233;27;47278;-89
2022/04/30 04:18:46;;;;;;;;;22.33;18.67;;;;;13.55;50.41;102274.81;5099360;27;45409;-89
2022/04/30 04:21:11;;;;;;;;;20.33;19.00;;;;;13.22;50.94;102233.88;5098519;27;45940;-89
2022/04/30 04:26:21;;;;;;;;;20.00;20.00;;;;;13.26;50.55;102248.94;5098540;27;45348;-89
2022/04/30 04:28:46;;;;;;;;;28.67;22.00;;;;;13.59;50.86;102314.00;5080430;27;45522;-89
2022/04/30 04:31:12;;;;;;;;;28.67;18.67;;;;;13.03;51.17;102223.72;5098383;27;46524;-89
2022/04/30 04:33:38;;;;;;;;;20.33;20.33;;;;;13.34;51.08;102267.47;5080177;27;45427;-89
2022/04/30 04:36:04;;;;;;;;;22.67;19.67;;;;;13.56;51.25;102311.44;5098458;27;45364;-89
2022/04/30 04:38:31;;;;;;;;;18.00;15.33;;;;;13.47;51.09;102293.81;5099001;27;45432;-89
2022/04/30 04:40:56;;;;;;;;;26.00;20.67;;;;;13.58;51.33;102314.94;5098320;27;46604;-89
2022/04/30 04:43:21;;;;;;;;;23.67;21.33;;;;;13.30;51.16;102269.38;5079801;27;45372;-89
2022/04/30 04:45:47;;;;;;;;;21.67;17.67;;;;;13.23;51.03;102252.59;5098402;27;46268;-89
2022/04/30 04:48:12;;;;;;;;;31.33;23.33;;;;;13.57;51.04;102326.56;5098659;27;45371;-89
2022/04/30 04:50:39;;;;;;;;;25.67;22.00;;;;;13.48;51.00;102308.97;5098547;27;46254;-89
2022/04/30 04:53:04;;;;;;;;;24.00;21.67;;;;;13.39;51.47;102297.66;5097915;27;45349;-89
2022/04/30 04:55:30;;;;;;;;;24.67;21.33;;;;;13.36;51.68;102295.94;5079571;27;45311;-89
2022/04/30 04:57:55;;;;;;;;;24.00;22.00;;;;;13.39;51.62;102301.25;5098081;27;45423;-89
2022/04/30 05:00:21;;;;;;;;;26.33;23.33;;;;;13.19;51.40;102272.34;5098135;27;46505;-89
2022/04/30 05:02:46;;;;;;;;;28.00;22.00;;;;;13.42;51.49;102311.84;5098366;27;45515;-89
2022/04/30 05:05:13;;;;;;;;;25.33;23.33;;;;;13.35;51.74;102298.69;5097953;27;45298;-89
2022/04/30 05:07:38;;;;;;;;;24.33;19.33;;;;;13.54;51.52;102339.19;5098449;27;45474;-89
2022/04/30 05:10:04;;;;;;;;;21.33;19.00;;;;;13.38;51.59;102299.47;5097560;27;46076;-89
2022/04/30 05:12:30;;;;;;;;;19.00;18.00;;;;;13.58;51.55;102332.78;5079294;27;45439;-89
2022/04/30 05:14:55;;;;;;;;;27.33;23.00;;;;;13.39;51.85;102303.00;5097795;27;45430;-89
2022/04/30 05:17:21;;;;;;;;;26.33;19.00;;;;;13.13;51.58;102251.09;5098023;27;45399;-89
2022/04/30 05:19:46;;;;;;;;;32.00;23.33;;;;;13.40;52.00;102297.63;5079459;27;48171;-89
2022/04/30 05:22:13;;;;;;;;;22.00;19.67;;;;;13.64;51.82;102338.84;5097785;27;45409;-89
2022/04/30 05:24:39;;;;;;;;;15.67;14.33;;;;;13.57;51.84;102329.25;5098052;27;45324;-90
2022/04/30 05:27:04;;;;;;;;;28.67;24.33;;;;;13.54;51.89;102324.00;5079266;27;45456;-89
2022/04/30 05:29:29;;;;;;;;;27.33;22.33;;;;;13.67;51.75;102341.44;5079457;27;47536;-89
2022/04/30 05:31:55;;;;;;;;;24.33;21.67;;;;;13.29;51.94;102279.19;5097804;27;45305;-89
2022/04/30 05:34:20;;;;;;;;;22.33;20.67;;;;;13.00;51.92;102237.22;5097937;27;45330;-89
2022/04/30 05:36:45;;;;;;;;;24.33;22.00;;;;;13.49;51.88;102317.91;5098316;27;45325;-89
2022/04/30 05:39:11;;;;;;;;;29.67;23.33;;;;;13.56;52.21;102327.50;5097461;27;45995;-89
2022/04/30 05:41:36;;;;;;;;;27.33;25.00;;;;;13.39;51.92;102285.16;5097242;27;49706;-89
2022/04/30 05:44:01;;;;;;;;;21.67;20.00;;;;;13.72;52.01;102339.50;5097785;27;45444;-89
2022/04/30 05:46:27;;;;;;;;;26.67;23.67;;;;;13.88;51.96;102358.66;5098233;27;45298;-89
2022/04/30 05:48:52;;;;;;;;;23.67;22.67;;;;;13.60;52.25;102313.09;5097476;27;45429;-89
2022/04/30 05:51:17;;;;;;;;;27.33;24.00;;;;;13.51;51.73;102278.56;5098340;27;45388;-89
2022/04/30 05:53:43;;;;;;;;;25.67;24.33;;;;;14.05;51.81;102360.78;5097520;27;45380;-89
2022/04/30 05:56:08;;;;;;;;;33.25;29.75;;;;;14.01;51.60;102350.22;5078944;27;45606;-88
2022/04/30 05:58:34;;;;;;;;;30.00;24.33;;;;;13.50;51.52;102266.94;5097515;27;45476;-89
2022/04/30 06:01:00;;;;;;;;;28.00;25.00;;;;;13.51;50.99;102254.44;5099329;27;45554;-89
2022/04/30 06:03:25;;;;;;;;;25.00;24.33;;;;;14.00;51.09;102327.00;5097406;27;45394;-89
2022/04/30 06:05:51;;;;;;;;;25.00;25.00;;;;;14.28;50.92;102369.88;5097726;27;45424;-89
2022/04/30 06:08:16;;;;;;;;;31.33;25.00;;;;;13.75;50.35;102284.06;5097453;27;45451;-89
2022/04/30 06:10:41;;;;;;;;;31.00;26.00;;;;;14.35;50.56;102372.31;5097165;27;45333;-89
2022/04/30 06:13:07;;;;;;;;;28.00;25.00;;;;;14.30;50.48;102360.84;5079214;27;45452;-89
2022/04/30 06:15:32;;;;;;;;;31.67;25.00;;;;;14.15;49.99;102338.09;5097833;27;45427;-90
2022/04/30 06:17:58;;;;;;;;;33.33;24.00;;;;;14.44;50.33;102383.66;5078782;27;48467;-89
2022/04/30 06:20:23;;;;;;;;;29.00;24.67;;;;;14.50;49.78;102383.47;5097390;27;45419;-90
2022/04/30 06:22:48;;;;;;;;;25.00;21.33;;;;;13.98;49.54;102294.91;5098365;27;45372;-89
2022/04/30 06:25:14;;;;;;;;;27.33;26.00;;;;;14.54;49.45;102380.66;5101033;27;45493;-89
2022/04/30 06:27:40;;;;;;;;;31.67;25.00;;;;;14.56;49.34;102385.94;5082262;27;48471;-89
2022/04/30 06:30:07;;;;;;;;;22.00;20.33;;;;;14.05;49.44;102300.94;5100439;27;45570;-89
2022/04/30 06:32:33;;;;;;;;;23.67;20.33;;;;;14.36;49.00;102366.00;5100576;27;45441;-89
2022/04/30 06:34:59;;;;;;;;;26.00;23.67;;;;;14.45;48.78;102372.00;5082377;27;45468;-89
2022/04/30 06:37:24;;;;;;;;;27.67;24.33;;;;;14.59;48.98;102385.00;5100438;27;45974;-89
2022/04/30 06:39:51;;;;;;;;;26.00;23.33;;;;;14.14;48.86;102308.66;5100032;27;45421;-90
2022/04/30 06:42:16;;;;;;;;;26.67;24.00;;;;;14.31;48.90;102343.84;5082058;27;45441;-89
2022/04/30 06:44:41;;;;;;;;;25.67;21.33;;;;;14.08;48.76;102285.59;5100763;27;45270;-90
2022/04/30 06:47:07;;;;;;;;;21.00;20.67;;;;;14.21;48.55;102312.91;5081657;27;47293;-90
2022/04/30 06:49:32;;;;;;;;;24.00;22.00;;;;;14.34;48.54;102327.63;5100210;27;45325;-89
2022/04/30 06:51:57;;;;;;;;;25.00;23.33;;;;;14.58;48.45;102351.91;5081743;27;45425;-89
2022/04/30 06:57:16;;;;;;;;;27.33;24.33;;;;;14.78;47.79;102361.94;5088461;27;45498;-89
2022/04/30 06:59:44;;;;;;;;;32.33;25.67;;;;;15.14;47.71;102396.44;5061635;28;45407;-89
2022/04/30 07:02:17;;;;;;;;;26.00;23.00;;;;;15.27;47.40;102403.13;5079656;27;45543;-90
2022/04/30 07:04:43;;;;;;;;;26.67;20.33;;;;;14.71;47.37;102287.94;5080019;28;45366;-90
2022/04/30 07:07:10;;;;;;;;;29.00;25.00;;;;;15.45;47.07;102404.25;5078785;28;45488;-89
2022/04/30 07:09:37;;;;;;;;;26.00;22.33;;;;;15.53;47.29;102403.97;5061539;28;45271;-89
2022/04/30 07:12:06;;;;;;;;;25.33;18.67;;;;;15.60;46.60;102409.06;5079722;28;45496;-89
2022/04/30 07:14:35;;;;;;;;;19.00;18.67;;;;;15.14;46.45;102332.00;5079620;27;45566;-89
2022/04/30 07:17:02;;;;;;;;;20.33;19.00;;;;;15.50;45.83;102375.41;5079303;28;45553;-90
2022/04/30 07:19:27;;;;;;;;;21.33;18.00;;;;;14.93;45.75;102274.59;5079239;28;45432;-89
2022/04/30 07:21:52;;;;;;;;;18.33;18.00;;;;;15.41;45.93;102363.19;5079976;28;45495;-89
2022/04/30 07:24:18;;;;;;;;;24.33;21.33;;;;;15.32;45.58;102335.81;5064245;28;45444;-90
2022/04/30 07:26:43;;;;;;;;;18.00;18.00;;;;;15.31;45.29;102325.97;5080213;27;45348;-89
2022/04/30 07:29:08;;;;;;;;;23.00;18.33;;;;;15.53;44.94;102351.09;5060981;28;45476;-90
2022/04/30 07:31:34;;;;;;;;;20.33;19.33;;;;;16.01;45.21;102420.06;5079049;27;45396;-89
2022/04/30 07:34:00;;;;;;;;;22.00;19.33;;;;;15.47;44.80;102312.84;5061191;28;45619;-89
2022/04/30 07:36:26;;;;;;;;;21.67;18.00;;;;;15.58;44.88;102335.66;5078669;28;45490;-90
2022/04/30 07:38:52;;;;;;;;;17.67;16.33;;;;;16.19;44.89;102418.41;5079063;28;45429;-90
2022/04/30 07:41:17;;;;;;;;;20.67;15.33;;;;;16.00;44.57;102390.53;5079529;28;45512;-90
2022/04/30 07:43:43;;;;;;;;;19.33;19.33;;;;;16.23;44.30;102411.13;5079298;28;45585;-89
2022/04/30 07:46:08;;;;;;;;;20.67;20.00;;;;;16.34;44.42;102421.41;5079128;28;45815;-90
2022/04/30 07:48:33;;;;;;;;;22.00;18.33;;;;;15.97;44.40;102343.13;5079099;28;45452;-89
2022/04/30 07:50:59;;;;;;;;;17.33;17.00;;;;;16.18;44.17;102360.19;5078492;27;45481;-90
2022/04/30 07:53:25;;;;;;;;;22.67;19.00;;;;;16.13;44.08;102334.41;5061044;28;45525;-89
2022/04/30 07:55:52;;;;;;;;;15.67;15.33;;;;;16.35;43.89;102348.72;5078363;27;45926;-90
2022/04/30 07:58:18;;;;;;;;;18.67;15.67;;;;;16.88;43.74;102412.88;5060574;28;45428;-89
2022/04/30 08:00:43;;;;;;;;;20.33;16.67;;;;;17.00;43.88;102419.56;5078870;28;45448;-90
2022/04/30 08:03:09;;;;;;;;;19.67;18.67;;;;;16.78;43.87;102363.00;5060607;28;45469;-89
2022/04/30 08:05:34;;;;;;;;;24.00;19.00;;;;;17.08;43.14;102395.81;5078260;27;46304;-89
2022/04/30 08:08:00;;;;;;;;;25.33;24.33;;;;;16.44;42.91;102258.66;5078596;27;45527;-89
2022/04/30 08:10:25;;;;;;;;;22.67;20.67;;;;;16.96;42.81;102337.13;5078873;28;45397;-90
2022/04/30 08:12:53;;;;;;;;;19.33;19.00;;;;;17.57;42.68;102419.69;5078652;28;45635;-90
2022/04/30 08:15:20;;;;;;;;;21.33;20.67;;;;;17.77;42.79;102410.66;5060089;28;48264;-90
2022/04/30 08:17:45;;;;;;;;;18.00;15.33;;;;;17.66;41.85;102350.97;5078311;28;45372;-90
2022/04/30 08:20:11;;;;;;;;;22.00;18.00;;;;;17.65;41.44;102328.53;5078353;28;45680;-89
2022/04/30 08:22:36;;;;;;;;;18.33;18.33;;;;;18.06;41.08;102370.63;5078824;28;45298;-89
2022/04/30 08:25:03;;;;;;;;;21.00;17.67;;;;;18.23;40.87;102376.06;5078082;28;45988;-89
2022/04/30 08:27:28;;;;;;;;;15.00;15.00;;;;;18.38;40.57;102376.25;5078398;27;45396;-89
2022/04/30 08:29:53;;;;;;;;;16.67;16.67;;;;;18.81;40.37;102409.22;5078236;28;45322;-89
2022/04/30 08:32:23;;;;;;;;;18.33;14.33;;;;;19.06;39.24;102398.88;5078712;28;45381;-89
2022/04/30 08:34:49;;;;;;;;;17.00;17.00;;;;;19.30;38.78;102399.38;5059497;28;47613;-89
2022/04/30 08:37:14;;;;;;;;;20.67;14.67;;;;;19.16;39.04;102300.09;5060063;28;45408;-89
2022/04/30 08:39:39;;;;;;;;;20.33;16.00;;;;;19.73;38.45;102315.00;5060026;28;45380;-89
2022/04/30 08:42:06;;;;;;;;;15.00;15.00;;;;;20.98;36.53;102411.47;5078533;28;45409;-90
2022/04/30 08:44:36;;;;;;;;;12.33;12.33;;;;;21.48;35.43;102331.50;5078183;28;46265;-83
2022/04/30 08:47:01;;;;;;;;;16.00;13.00;;;;;22.66;33.94;102372.53;5077237;28;45374;-83
2022/04/30 08:49:27;;;;;;;;;15.00;13.67;;;;;23.68;32.39;102388.00;5059667;28;45495;-83
2022/04/30 08:51:52;;;;;;;;;12.67;11.00;;;;;24.47;31.77;102355.81;5077627;28;45563;-81
2022/04/30 08:54:17;;;;;;;;;9.67;8.00;;;;;25.25;29.53;102327.84;5077686;27;46691;-81
2022/04/30 08:56:57;;;;;;;;;16.67;12.67;;;;;26.61;29.72;102377.59;5077606;27;45499;-82
2022/04/30 08:59:23;;;;;;;;;13.00;11.00;;;;;27.34;28.36;102336.56;5078115;28;45459;-82
2022/04/30 09:01:51;;;;;;;;;13.67;11.67;;;;;28.15;26.08;102318.16;5059622;28;45412;-82
2022/04/30 09:04:18;;;;;;;;;12.33;11.33;;;;;29.09;25.79;102344.94;5077141;28;45410;-82
2022/04/30 09:06:58;;;;;;;;;11.33;11.33;;;;;29.89;24.74;102359.00;5059422;28;45481;-82
2022/04/30 09:09:28;;;;;;;;;7.33;7.33;;;;;30.59;23.92;102366.59;5078025;28;45273;-82
2022/04/30 09:11:57;;;;;;;;;9.00;9.00;;;;;30.82;22.36;102303.63;5077847;28;45442;-82
2022/04/30 09:14:26;;;;;;;;;7.67;7.67;;;;;31.75;22.62;102342.34;5077659;28;46464;-82
2022/04/30 09:17:02;;;;;;;;;9.00;9.00;;;;;32.28;21.89;102356.78;5077193;28;45463;-82
2022/04/30 09:19:27;;;;;;;;;11.33;8.67;;;;;32.73;21.44;102360.94;5077466;28;45379;-82
2022/04/30 09:21:53;;;;;;;;;8.33;8.33;;;;;33.09;20.64;102357.81;5077590;27;45429;-82
2022/04/30 09:24:18;;;;;;;;;9.33;9.33;;;;;33.49;20.07;102359.56;5077556;28;45641;-82
2022/04/30 09:26:44;;;;;;;;;8.33;7.33;;;;;33.48;19.89;102283.16;5059049;28;45408;-82
2022/04/30 09:29:20;;;;;;;;;9.00;8.00;;;;;33.90;19.87;102278.28;5077656;28;45346;-82
2022/04/30 09:31:50;;;;;;;;;8.00;7.00;;;;;34.38;18.83;102288.09;5077594;27;45499;-82
2022/04/30 09:37:42;;;;;;;;;5.67;5.67;;;;;35.52;18.38;102337.81;5076976;28;45349;-82
2022/04/30 09:39:49;;;;;;;;;2.67;2.67;;;;;36.01;18.21;102314.91;5063567;28;45420;-82
2022/04/30 09:42:14;;;;;;;;;6.00;5.00;;;;;36.32;17.39;102291.53;5059402;28;45456;-82
2022/04/30 09:44:40;;;;;;;;;9.67;6.67;;;;;37.12;16.26;102345.81;5077167;28;46132;-83
2022/04/30 09:47:07;;;;;;;;;8.00;7.00;;;;;37.61;16.18;102326.38;5076671;28;45850;-82
2022/04/30 09:55:03;;;;;;;;;8.00;5.33;;;;;39.87;13.98;102318.66;5076618;28;45796;-83
2022/04/30 09:57:32;;;;;;;;;7.00;6.00;;;;;40.29;14.00;102268.72;5077406;27;45469;-82
2022/04/30 09:59:59;;;;;;;;;7.00;7.00;;;;;41.04;13.07;102320.03;5080628;27;45298;-83
2022/04/30 10:02:30;;;;;;;;;5.33;5.33;;;;;41.78;12.96;102334.84;5062632;28;45345;-83
2022/04/30 10:04:56;;;;;;;;;5.67;5.67;;;;;42.62;11.82;102295.56;5080325;27;45737;-83
2022/04/30 10:07:24;;;;;;;;;5.33;5.33;;;;;43.65;11.13;102318.34;5062448;28;45926;-83
2022/04/30 10:10:01;;;;;;;;;6.67;6.67;;;;;44.64;10.67;102340.31;5080375;28;45322;-83
2022/04/30 10:12:31;;;;;;;;;6.67;6.33;;;;;44.44;10.30;102224.69;5080907;28;45321;-82
2022/04/30 10:15:00;;;;;;;;;4.33;4.00;;;;;45.43;9.66;102336.38;5080003;28;45508;-82
2022/04/30 10:17:28;;;;;;;;;5.33;5.33;;;;;45.90;9.17;102344.25;5080331;27;45337;-82
2022/04/30 10:20:00;;;;;;;;;6.00;6.00;;;;;45.99;9.91;102302.34;5080350;28;45330;-83
2022/04/30 10:22:27;;;;;;;;;5.33;5.33;;;;;46.16;9.33;102298.53;5080732;27;45322;-83
2022/04/30 10:24:57;;;;;;;;;4.00;3.67;;;;;46.07;9.75;102315.09;5079868;28;45407;-83
2022/04/30 10:27:24;;;;;;;;;7.67;6.67;;;;;45.76;9.23;102294.22;5080438;27;45389;-83
2022/04/30 10:29:57;;;;;;;;;7.00;5.67;;;;;45.50;9.18;102325.75;5061821;28;45549;-83
2022/04/30 10:32:37;;;;;;;;;5.67;5.67;;;;;44.72;9.81;102287.53;5080543;27;45342;-83
2022/04/30 10:35:04;;;;;;;;;13.67;13.00;;;;;44.34;10.29;102292.00;5079703;27;45479;-89
2022/04/30 10:37:34;;;;;;;;;12.00;12.00;;;;;44.06;10.10;102326.69;5061867;28;45361;-89
2022/04/30 10:40:04;;;;;;;;;8.33;5.67;;;;;43.29;10.66;102275.47;5080077;28;45393;-89
2022/04/30 10:42:40;;;;;;;;;8.00;7.33;;;;;43.01;11.17;102309.91;5062311;28;45589;-90
2022/04/30 10:45:07;;;;;;;;;3.33;3.33;;;;;42.43;11.08;102269.59;5061205;27;48161;-89
2022/04/30 10:47:33;;;;;;;;;7.33;6.33;;;;;42.54;11.35;102323.97;5080116;27;45337;-89
2022/04/30 10:49:58;;;;;;;;;10.00;9.00;;;;;41.97;11.14;102248.81;5061554;28;45250;-89
2022/04/30 10:52:27;;;;;;;;;6.00;6.00;;;;;41.82;11.66;102256.78;5061665;28;45407;-89
2022/04/30 10:54:58;;;;;;;;;8.67;8.00;;;;;41.52;11.69;102247.31;5060383;28;48011;-89
2022/04/30 10:57:23;;;;;;;;;9.67;9.00;;;;;41.96;11.93;102305.97;5078933;27;45362;-89
2022/04/30 10:59:57;;;;;;;;;7.67;7.67;;;;;41.81;12.07;102250.34;5061152;28;45491;-89
2022/04/30 11:02:22;;;;;;;;;7.33;6.33;;;;;42.28;11.04;102280.41;5079659;28;45476;-89
2022/04/30 11:04:47;;;;;;;;;8.33;8.33;;;;;42.38;10.76;102275.94;5078722;28;46174;-89
2022/04/30 11:07:13;;;;;;;;;3.00;3.00;;;;;42.26;10.86;102223.72;5078568;27;48186;-89
2022/04/30 11:09:43;;;;;;;;;7.00;6.00;;;;;42.95;10.95;102289.31;5078769;27;45269;-88
2022/04/30 11:12:13;;;;;;;;;6.67;5.33;;;;;42.95;10.46;102257.63;5060662;28;45457;-89
2022/04/30 11:14:40;;;;;;;;;6.00;6.00;;;;;43.36;10.53;102286.53;5078218;28;45485;-88
2022/04/30 11:17:05;;;;;;;;;5.00;5.00;;;;;43.14;9.94;102258.28;5078288;27;45368;-89
2022/04/30 11:19:31;;;;;;;;;16.67;16.67;;;;;42.07;9.91;102194.97;5078729;27;45318;-88
2022/04/30 11:21:57;;;;;;;;;38.00;32.33;;;;;40.97;11.11;102222.19;5060595;28;45627;-88
2022/04/30 11:24:30;;;;;;;;;17.67;16.33;;;;;39.87;11.63;102261.94;5078183;27;46615;-88
2022/04/30 11:27:03;;;;;;;;;12.33;11.00;;;;;38.59;12.21;102198.59;5059887;28;45388;-88
2022/04/30 11:29:28;;;;;;;;;7.00;7.00;;;;;38.13;12.85;102238.47;5059910;28;45363;-88
2022/04/30 11:31:56;;;;;;;;;2.67;2.33;;;;;37.65;12.27;102250.63;5060084;28;45234;-88
2022/04/30 11:34:22;;;;;;;;;3.67;3.67;;;;;37.37;12.77;102271.06;5077993;28;45445;-88
2022/04/30 11:36:50;;;;;;;;;2.33;2.33;;;;;36.63;12.80;102220.84;5078077;28;45422;-88
2022/04/30 11:39:16;;;;;;;;;3.33;3.33;;;;;36.52;13.73;102273.06;5060052;28;45473;-88
2022/04/30 11:41:50;;;;;;;;;1.33;1.33;;;;;35.61;14.04;102192.41;5060114;28;45558;-88
2022/04/30 11:44:18;;;;;;;;;2.67;1.67;;;;;35.50;14.10;102237.28;5077608;27;46536;-88